Time;durP1;ratioP1;P1;durP2;ratioP2;P2;SDS_P1;SDS_P2;PMS_P1;PMS_P2;Temp;Humidity;BMP_temperature;BMP_pressure;BME280_temperature;BME280_humidity;BME280_pressure;Samples;Min_cycle;Max_cycle;Signal;HPM_P1;HPM_P2
2023/07/04 00:00:27;;;;;;;3.40;2.17;;;18.20;1.00;;;;;;7385813;19;20086;-68
2023/07/04 00:02:57;;;;;;;3.78;1.92;;;18.10;1.00;;;;;;7387247;19;20023;-68
2023/07/04 00:05:28;;;;;;;3.45;2.20;;;18.00;1.00;;;;;;7390352;19;20042;-68
2023/07/04 00:07:58;;;;;;;5.70;2.55;;;18.00;1.00;;;;;;7386588;19;20088;-68
2023/07/04 00:10:27;;;;;;;3.72;2.35;;;18.00;1.00;;;;;;7385994;19;20018;-68
2023/07/04 00:12:57;;;;;;;3.47;2.60;;;18.00;1.00;;;;;;7386832;19;20031;-68
2023/07/04 00:15:30;;;;;;;2.78;1.80;;;17.90;1.00;;;;;;7390603;19;20011;-68
2023/07/04 00:18:00;;;;;;;3.53;2.50;;;17.90;1.00;;;;;;7388796;19;20010;-68
2023/07/04 00:20:33;;;;;;;5.90;2.25;;;17.80;1.00;;;;;;7392216;19;20077;-68
2023/07/04 00:23:03;;;;;;;3.75;2.22;;;17.80;1.00;;;;;;7394258;19;20035;-68
2023/07/04 00:25:33;;;;;;;4.57;2.15;;;17.80;1.00;;;;;;7397249;19;20086;-68
2023/07/04 00:28:04;;;;;;;3.03;1.80;;;17.70;1.00;;;;;;7393836;19;20081;-68
2023/07/04 00:30:37;;;;;;;5.20;2.22;;;17.60;1.00;;;;;;7396120;19;20711;-68
2023/07/04 00:33:07;;;;;;;4.68;2.17;;;17.60;1.00;;;;;;7393871;19;20097;-68
2023/07/04 00:35:38;;;;;;;3.42;2.10;;;17.60;1.00;;;;;;7397178;19;20031;-69
2023/07/04 00:38:08;;;;;;;3.88;2.10;;;17.60;1.00;;;;;;7393372;19;20038;-69
2023/07/04 00:40:39;;;;;;;4.93;2.25;;;17.60;1.00;;;;;;7391583;19;20083;-68
2023/07/04 00:43:12;;;;;;;3.50;1.70;;;17.60;1.00;;;;;;7393841;19;20015;-68
2023/07/04 00:45:48;;;;;;;8.82;2.13;;;17.60;1.00;;;;;;7397018;19;20506;-68
2023/07/04 00:48:18;;;;;;;3.78;2.00;;;17.70;1.00;;;;;;7392234;19;20074;-69
2023/07/04 00:50:49;;;;;;;2.75;1.88;;;17.60;1.00;;;;;;7392032;19;20018;-69
2023/07/04 00:53:20;;;;;;;3.03;1.92;;;17.60;1.00;;;;;;7392759;19;20023;-68
2023/07/04 00:55:52;;;;;;;3.25;1.90;;;17.60;1.00;;;;;;7390616;19;20014;-68
2023/07/04 00:58:22;;;;;;;2.15;1.67;;;17.60;1.00;;;;;;7392333;19;20493;-67
2023/07/04 01:00:55;;;;;;;3.65;2.05;;;17.60;1.00;;;;;;7390682;19;20053;-68
2023/07/04 01:03:25;;;;;;;4.25;2.00;;;17.80;1.00;;;;;;7391830;19;20022;-68
2023/07/04 01:06:03;;;;;;;2.58;1.80;;;17.80;1.00;;;;;;7392869;19;20018;-68
2023/07/04 01:08:37;;;;;;;2.42;1.67;;;17.80;1.00;;;;;;7392710;19;20019;-68
2023/07/04 01:11:25;;;;;;;3.83;1.90;;;17.80;1.00;;;;;;7389053;19;20082;-68
2023/07/04 01:13:55;;;;;;;4.05;2.10;;;17.90;1.00;;;;;;7392229;19;20014;-68
2023/07/04 01:16:29;;;;;;;3.10;1.65;;;17.90;1.00;;;;;;7392734;19;20018;-68
2023/07/04 01:19:00;;;;;;;3.00;1.73;;;17.80;1.00;;;;;;7391783;19;20019;-68
2023/07/04 01:21:30;;;;;;;1.60;1.40;;;17.80;1.00;;;;;;7389713;19;20018;-68
2023/07/04 01:24:09;;;;;;;4.40;2.00;;;17.90;1.00;;;;;;7392000;19;20014;-68
2023/07/04 01:26:46;;;;;;;2.95;1.70;;;18.00;1.00;;;;;;7391455;19;20090;-67
2023/07/04 01:29:19;;;;;;;2.75;1.52;;;18.00;1.00;;;;;;7391147;19;20006;-67
2023/07/04 01:31:49;;;;;;;1.98;1.63;;;18.00;1.00;;;;;;7392066;19;20085;-68
2023/07/04 01:34:20;;;;;;;3.20;2.17;;;18.00;1.00;;;;;;7392481;19;20017;-68
2023/07/04 01:36:51;;;;;;;3.05;1.70;;;17.90;1.00;;;;;;7391334;19;20038;-69
2023/07/04 01:39:21;;;;;;;4.05;2.15;;;18.00;1.00;;;;;;7390419;19;20011;-69
2023/07/04 01:41:53;;;;;;;4.68;2.10;;;18.10;1.00;;;;;;7390207;19;20014;-69
2023/07/04 01:44:25;;;;;;;2.78;2.05;;;18.10;1.00;;;;;;7392424;19;20081;-68
2023/07/04 01:46:55;;;;;;;2.55;1.90;;;18.10;1.00;;;;;;7391464;19;20018;-68
2023/07/04 01:49:25;;;;;;;2.92;1.73;;;18.00;1.00;;;;;;7389928;19;20086;-68
2023/07/04 01:51:55;;;;;;;3.67;1.80;;;18.00;1.00;;;;;;7391116;19;20014;-69
2023/07/04 01:54:25;;;;;;;2.97;2.00;;;18.10;1.00;;;;;;7391870;19;20025;-69
2023/07/04 01:56:57;;;;;;;4.13;2.20;;;18.10;1.00;;;;;;7391164;19;20025;-69
2023/07/04 01:59:27;;;;;;;2.92;1.98;;;18.10;1.00;;;;;;7389263;19;20049;-69
2023/07/04 02:01:57;;;;;;;3.38;2.15;;;18.10;1.00;;;;;;7388549;19;20014;-69
2023/07/04 02:04:27;;;;;;;4.13;2.40;;;18.10;1.00;;;;;;7391807;19;20041;-69
2023/07/04 02:06:57;;;;;;;4.03;2.60;;;18.00;1.00;;;;;;7390394;19;20015;-69
2023/07/04 02:09:27;;;;;;;4.80;2.15;;;18.00;1.00;;;;;;7390324;19;20038;-68
2023/07/04 02:11:59;;;;;;;2.47;2.15;;;18.00;1.00;;;;;;7390147;19;20491;-68
2023/07/04 02:14:29;;;;;;;5.55;2.08;;;18.00;1.00;;;;;;7389193;19;20742;-68
2023/07/04 02:16:59;;;;;;;4.63;2.30;;;18.00;1.00;;;;;;7390956;19;20027;-68
2023/07/04 02:19:29;;;;;;;4.53;2.30;;;17.90;1.00;;;;;;7390014;19;20014;-68
2023/07/04 02:22:00;;;;;;;3.95;2.15;;;17.90;1.00;;;;;;7387171;19;20018;-68
2023/07/04 02:24:30;;;;;;;6.40;2.20;;;17.90;1.00;;;;;;7389440;19;20018;-68
2023/07/04 02:27:02;;;;;;;4.55;2.22;;;17.90;1.00;;;;;;7389126;19;20082;-69
2023/07/04 02:29:32;;;;;;;3.58;2.15;;;17.90;1.00;;;;;;7391024;19;20695;-69
2023/07/04 02:32:02;;;;;;;2.85;1.85;;;17.90;1.00;;;;;;7389179;19;20071;-69
2023/07/04 02:34:32;;;;;;;5.28;2.53;;;17.80;1.00;;;;;;7390908;19;20011;-69
2023/07/04 02:37:02;;;;;;;3.22;2.20;;;17.80;1.00;;;;;;7389704;19;20572;-69
2023/07/04 02:39:32;;;;;;;3.30;2.13;;;17.70;1.00;;;;;;7388081;19;20031;-69
2023/07/04 02:42:04;;;;;;;5.22;2.47;;;17.60;1.00;;;;;;7387010;19;20027;-69
2023/07/04 02:44:34;;;;;;;2.97;2.03;;;17.60;1.00;;;;;;7390238;19;20035;-69
2023/07/04 02:47:05;;;;;;;4.13;2.28;;;17.60;1.00;;;;;;7389124;19;20014;-69
2023/07/04 02:49:35;;;;;;;3.38;2.22;;;17.60;1.00;;;;;;7388463;19;20457;-69
2023/07/04 02:52:05;;;;;;;5.50;2.65;;;17.60;1.00;;;;;;7388386;19;20018;-69
2023/07/04 02:54:35;;;;;;;3.10;2.22;;;17.50;1.00;;;;;;7389603;19;20019;-69
2023/07/04 02:57:13;;;;;;;3.35;2.00;;;17.50;1.00;;;;;;7389005;19;20035;-69
2023/07/04 02:59:43;;;;;;;3.08;2.17;;;17.40;1.00;;;;;;7388124;19;20482;-69
2023/07/04 03:02:14;;;;;;;3.97;2.35;;;17.50;1.00;;;;;;7387689;19;20019;-67
2023/07/04 03:04:45;;;;;;;3.75;2.25;;;17.50;1.00;;;;;;7389546;19;20017;-67
2023/07/04 03:07:15;;;;;;;3.58;2.38;;;17.50;1.00;;;;;;7389117;19;20014;-68
2023/07/04 03:09:45;;;;;;;5.30;2.30;;;17.50;1.00;;;;;;7388011;19;20015;-68
2023/07/04 03:12:18;;;;;;;4.47;2.67;;;17.50;1.00;;;;;;7388064;19;20089;-68
2023/07/04 03:14:48;;;;;;;4.47;2.00;;;17.40;1.00;;;;;;7389728;19;20408;-68
2023/07/04 03:17:18;;;;;;;3.75;2.00;;;17.40;1.00;;;;;;7388288;19;20420;-68
2023/07/04 03:19:48;;;;;;;3.85;2.13;;;17.30;1.00;;;;;;7387922;19;20019;-68
2023/07/04 03:22:18;;;;;;;5.72;2.28;;;17.40;1.00;;;;;;7387659;19;20031;-68
2023/07/04 03:24:48;;;;;;;4.63;2.10;;;17.40;1.00;;;;;;7389298;19;20011;-68
2023/07/04 03:27:20;;;;;;;5.40;2.22;;;17.40;1.00;;;;;;7387764;19;20010;-68
2023/07/04 03:29:50;;;;;;;3.90;2.05;;;17.50;1.00;;;;;;7389365;19;20462;-68
2023/07/04 03:32:20;;;;;;;5.07;2.33;;;17.50;1.00;;;;;;7388211;19;20041;-68
2023/07/04 03:34:50;;;;;;;2.78;2.13;;;17.50;1.00;;;;;;7389083;19;20035;-68
2023/07/04 03:37:20;;;;;;;4.28;2.20;;;17.50;1.00;;;;;;7387617;19;20014;-68
2023/07/04 03:39:50;;;;;;;4.70;2.28;;;17.50;1.00;;;;;;7386856;19;20021;-67
2023/07/04 03:42:22;;;;;;;4.70;2.40;;;17.60;1.00;;;;;;7387160;19;20015;-68
2023/07/04 03:44:53;;;;;;;2.55;1.88;;;17.70;1.00;;;;;;7388430;19;20474;-68
2023/07/04 03:47:22;;;;;;;2.90;2.20;;;17.60;1.00;;;;;;7387544;19;20015;-68
2023/07/04 03:49:52;;;;;;;3.15;1.92;;;17.60;1.00;;;;;;7386818;19;20034;-68
2023/07/04 03:52:22;;;;;;;4.60;2.30;;;17.60;1.00;;;;;;7390184;19;20478;-67
2023/07/04 03:54:52;;;;;;;3.97;2.15;;;17.60;1.00;;;;;;7396061;19;20018;-67
2023/07/04 03:57:25;;;;;;;6.57;2.78;;;17.60;1.00;;;;;;7395349;19;20010;-67
2023/07/04 03:59:55;;;;;;;4.57;2.33;;;17.60;1.00;;;;;;7393650;19;20031;-67
2023/07/04 04:02:25;;;;;;;4.45;2.35;;;17.70;1.00;;;;;;7394262;19;20018;-67
2023/07/04 04:04:55;;;;;;;7.18;3.15;;;17.80;1.00;;;;;;7394445;19;20499;-68
2023/07/04 04:07:25;;;;;;;4.70;3.00;;;17.90;1.00;;;;;;7395150;19;20054;-68
2023/07/04 04:09:55;;;;;;;4.40;2.38;;;17.90;1.00;;;;;;7393199;19;20065;-68
2023/07/04 04:12:27;;;;;;;3.42;2.20;;;17.90;1.00;;;;;;7393189;19;20022;-68
2023/07/04 04:14:57;;;;;;;3.13;2.10;;;17.90;1.00;;;;;;7394576;19;20014;-68
2023/07/04 04:17:27;;;;;;;3.13;1.90;;;18.00;1.00;;;;;;7393660;19;20079;-68
2023/07/04 04:19:57;;;;;;;2.90;2.28;;;18.10;1.00;;;;;;7393225;19;20026;-68
2023/07/04 04:22:27;;;;;;;3.40;2.60;;;18.20;1.00;;;;;;7393704;19;20018;-68
2023/07/04 04:24:57;;;;;;;3.67;2.20;;;18.10;1.00;;;;;;7394492;19;20326;-68
2023/07/04 04:27:30;;;;;;;4.68;2.17;;;18.10;1.00;;;;;;7393724;19;20014;-69
2023/07/04 04:30:00;;;;;;;5.78;2.33;;;18.20;1.00;;;;;;7395376;19;20018;-69
2023/07/04 04:32:33;;;;;;;3.63;2.10;;;18.30;1.00;;;;;;7394158;19;20461;-69
2023/07/04 04:35:03;;;;;;;4.07;2.28;;;18.30;1.00;;;;;;7394244;19;20007;-68
2023/07/04 04:37:34;;;;;;;2.90;2.10;;;18.40;1.00;;;;;;7394413;19;20011;-68
2023/07/04 04:40:04;;;;;;;3.45;1.92;;;18.50;1.00;;;;;;7392277;19;20010;-68
2023/07/04 04:42:37;;;;;;;4.40;2.28;;;18.50;1.00;;;;;;7393133;19;20477;-68
2023/07/04 04:45:09;;;;;;;4.43;2.55;;;18.50;1.00;;;;;;7394367;19;20015;-70
2023/07/04 04:47:39;;;;;;;3.83;2.22;;;18.50;1.00;;;;;;7393719;19;20035;-68
2023/07/04 04:50:10;;;;;;;5.55;2.33;;;18.50;1.00;;;;;;7392349;19;20010;-68
2023/07/04 04:52:41;;;;;;;4.00;2.20;;;18.60;1.00;;;;;;7393117;19;20018;-68
2023/07/04 04:55:11;;;;;;;6.22;2.30;;;18.60;1.00;;;;;;7394478;19;20027;-68
2023/07/04 04:57:44;;;;;;;3.25;2.10;;;18.70;1.00;;;;;;7392726;19;20028;-68
2023/07/04 05:00:16;;;;;;;2.63;1.80;;;18.80;1.00;;;;;;7392430;19;20022;-68
2023/07/04 05:02:46;;;;;;;3.83;1.88;;;18.70;1.00;;;;;;7393184;19;20485;-68
2023/07/04 05:05:16;;;;;;;3.60;1.70;;;18.90;1.00;;;;;;7391965;19;20018;-68
2023/07/04 05:07:46;;;;;;;2.45;1.55;;;19.10;1.00;;;;;;7392768;19;20042;-68
2023/07/04 05:10:16;;;;;;;5.75;2.20;;;19.00;1.00;;;;;;7391591;19;20094;-68
2023/07/04 05:12:49;;;;;;;4.22;1.70;;;19.10;1.00;;;;;;7392490;19;20038;-67
2023/07/04 05:15:19;;;;;;;5.25;2.28;;;19.20;1.00;;;;;;7394381;19;20019;-68
2023/07/04 05:17:49;;;;;;;3.03;1.80;;;19.10;1.00;;;;;;7391714;19;20021;-68
2023/07/04 05:20:23;;;;;;;3.90;2.08;;;19.10;1.00;;;;;;7391055;19;20025;-69
2023/07/04 05:22:56;;;;;;;3.55;1.70;;;19.20;1.00;;;;;;7392406;19;20030;-69
2023/07/04 05:25:26;;;;;;;2.80;1.70;;;19.20;1.00;;;;;;7393713;19;20031;-69
2023/07/04 05:27:59;;;;;;;2.53;1.60;;;19.10;1.00;;;;;;7391949;19;20007;-68
2023/07/04 05:30:28;;;;;;;3.08;1.73;;;19.20;1.00;;;;;;7393105;19;20018;-68
2023/07/04 05:32:58;;;;;;;5.22;2.20;;;19.20;1.00;;;;;;7391880;19;20461;-68
2023/07/04 05:35:28;;;;;;;5.18;1.98;;;19.30;1.00;;;;;;7391345;19;20481;-68
2023/07/04 05:37:58;;;;;;;4.75;1.83;;;19.30;1.00;;;;;;7391802;19;20323;-68
2023/07/04 05:40:28;;;;;;;5.75;1.98;;;19.60;1.00;;;;;;7389872;19;20018;-69
2023/07/04 05:43:01;;;;;;;3.67;1.95;;;20.20;1.00;;;;;;7391175;19;20019;-68
2023/07/04 05:45:31;;;;;;;5.13;2.15;;;20.60;1.00;;;;;;7393252;19;20035;-69
2023/07/04 05:48:01;;;;;;;3.47;2.00;;;20.90;1.00;;;;;;7391820;19;20120;-68
2023/07/04 05:50:31;;;;;;;3.88;1.83;;;21.60;1.00;;;;;;7389918;19;20026;-68
2023/07/04 05:53:00;;;;;;;8.93;1.95;;;21.80;1.00;;;;;;7390780;19;20018;-69
2023/07/04 05:55:30;;;;;;;3.53;1.88;;;21.20;1.00;;;;;;7391354;19;20019;-68
2023/07/04 05:58:04;;;;;;;6.82;2.08;;;21.20;1.00;;;;;;7391041;19;20011;-69
2023/07/04 06:00:36;;;;;;;8.05;1.90;;;21.20;1.00;;;;;;7389422;19;20039;-69
2023/07/04 06:03:06;;;;;;;5.82;2.35;;;22.60;1.00;;;;;;7390932;19;20376;-69
2023/07/04 06:05:40;;;;;;;5.30;2.17;;;22.70;1.00;;;;;;7390256;19;20019;-69
2023/07/04 06:08:10;;;;;;;3.70;2.00;;;21.90;1.00;;;;;;7390148;19;20513;-69
2023/07/04 06:10:40;;;;;;;4.70;1.98;;;22.30;1.00;;;;;;7389154;19;20044;-68
2023/07/04 06:13:13;;;;;;;4.85;1.85;;;22.30;1.00;;;;;;7390561;19;20022;-68
2023/07/04 06:15:43;;;;;;;4.72;2.28;;;21.80;1.00;;;;;;7391788;19;20014;-69
2023/07/04 06:18:13;;;;;;;4.40;2.50;;;21.70;1.00;;;;;;7388621;19;20081;-68
2023/07/04 06:20:43;;;;;;;6.43;2.00;;;21.80;1.00;;;;;;7388909;19;20014;-69
2023/07/04 06:23:13;;;;;;;6.68;2.00;;;21.70;1.00;;;;;;7390341;19;20018;-69
2023/07/04 06:25:43;;;;;;;6.57;2.20;;;21.80;1.00;;;;;;7390055;19;20476;-69
2023/07/04 06:28:15;;;;;;;6.05;2.28;;;21.80;1.00;;;;;;7390351;19;20020;-68
2023/07/04 06:30:45;;;;;;;3.78;2.10;;;21.60;1.00;;;;;;7391685;19;20051;-67
2023/07/04 06:33:15;;;;;;;4.95;2.10;;;20.90;1.00;;;;;;7389303;19;20034;-68
2023/07/04 06:35:45;;;;;;;6.07;2.08;;;21.00;1.00;;;;;;7391277;19;20035;-69
2023/07/04 06:38:15;;;;;;;5.78;2.65;;;22.70;1.00;;;;;;7389443;19;20014;-67
2023/07/04 06:40:56;;;;;;;5.55;2.17;;;22.30;1.00;;;;;;7387277;19;20038;-69
2023/07/04 06:43:30;;;;;;;5.43;2.28;;;22.80;1.00;;;;;;7388898;19;20018;-69
2023/07/04 06:46:00;;;;;;;5.50;2.15;;;23.20;1.00;;;;;;7391222;19;20035;-69
2023/07/04 06:48:31;;;;;;;5.50;2.38;;;22.50;1.00;;;;;;7389159;19;20042;-69
2023/07/04 06:51:03;;;;;;;4.03;2.00;;;22.50;1.00;;;;;;7387766;19;20010;-69
2023/07/04 06:53:34;;;;;;;7.00;2.08;;;22.00;1.00;;;;;;7389298;19;20014;-69
2023/07/04 06:56:09;;;;;;;6.53;2.58;;;21.90;1.00;;;;;;7391001;19;20018;-68
2023/07/04 06:58:45;;;;;;;5.88;2.30;;;22.10;1.00;;;;;;7389300;19;20010;-68
2023/07/04 07:01:15;;;;;;;9.23;2.72;;;21.80;1.00;;;;;;7387700;19;20011;-68
2023/07/04 07:03:45;;;;;;;4.70;2.30;;;21.80;1.00;;;;;;7388974;19;20595;-69
2023/07/04 07:06:15;;;;;;;7.18;2.75;;;21.90;1.00;;;;;;7387769;19;20367;-68
2023/07/04 07:08:45;;;;;;;12.20;2.75;;;21.70;1.00;;;;;;7388747;19;20124;-68
2023/07/04 07:11:17;;;;;;;7.03;2.60;;;21.80;1.00;;;;;;7387431;19;20022;-69
2023/07/04 07:13:49;;;;;;;4.85;2.15;;;21.60;1.00;;;;;;7388814;19;20038;-68
2023/07/04 07:16:21;;;;;;;7.10;2.50;;;21.90;1.00;;;;;;7391043;19;20355;-70
2023/07/04 07:18:53;;;;;;;6.78;2.55;;;21.80;1.00;;;;;;7388372;19;20401;-69
2023/07/04 07:21:25;;;;;;;6.72;2.53;;;21.80;1.00;;;;;;7386271;19;20014;-69
2023/07/04 07:23:56;;;;;;;8.77;2.53;;;21.60;1.00;;;;;;7388189;19;20019;-69
2023/07/04 07:26:28;;;;;;;6.22;2.70;;;21.40;1.00;;;;;;7388157;19;20474;-70
2023/07/04 07:29:00;;;;;;;5.50;2.80;;;21.70;1.00;;;;;;7388101;19;20010;-69
2023/07/04 07:31:31;;;;;;;8.30;2.80;;;21.40;1.00;;;;;;7385526;19;20015;-68
2023/07/04 07:34:04;;;;;;;7.70;3.08;;;20.90;1.00;;;;;;7387789;19;20252;-68
2023/07/04 07:36:37;;;;;;;8.43;2.85;;;21.20;1.00;;;;;;7389148;19;20351;-68
2023/07/04 07:39:11;;;;;;;8.35;2.63;;;21.70;1.00;;;;;;7387352;19;20033;-69
2023/07/04 07:41:42;;;;;;;7.57;2.63;;;22.00;1.00;;;;;;7387407;19;20563;-69
2023/07/04 07:44:16;;;;;;;6.68;2.40;;;22.20;1.00;;;;;;7387122;19;20015;-69
2023/07/04 07:46:47;;;;;;;7.80;3.03;;;22.30;1.00;;;;;;7390495;19;20018;-69
2023/07/04 07:49:17;;;;;;;9.60;2.95;;;22.50;1.00;;;;;;7388312;19;20100;-69
2023/07/04 07:51:47;;;;;;;8.30;3.05;;;22.60;1.00;;;;;;7387447;19;20011;-67
2023/07/04 07:54:17;;;;;;;7.70;2.67;;;22.80;1.00;;;;;;7386524;19;20553;-68
2023/07/04 07:56:48;;;;;;;6.10;2.42;;;22.50;1.00;;;;;;7390361;19;20038;-69
2023/07/04 07:59:21;;;;;;;6.18;2.80;;;21.80;1.00;;;;;;7386646;19;20068;-69
2023/07/04 08:01:51;;;;;;;7.60;2.88;;;21.90;1.00;;;;;;7386786;19;20015;-69
2023/07/04 08:04:22;;;;;;;5.18;3.10;;;21.70;1.00;;;;;;7386744;19;20007;-69
2023/07/04 08:06:52;;;;;;;7.22;3.10;;;22.30;1.00;;;;;;7388276;19;20471;-69
2023/07/04 08:09:22;;;;;;;6.10;2.63;;;22.80;1.00;;;;;;7386455;19;20006;-70
2023/07/04 08:11:52;;;;;;;4.72;2.65;;;23.00;1.00;;;;;;7387439;19;20010;-68
2023/07/04 08:14:25;;;;;;;7.72;2.55;;;22.50;1.00;;;;;;7386691;19;20066;-68
2023/07/04 08:16:56;;;;;;;5.88;3.25;;;22.40;1.00;;;;;;7389993;19;20049;-69
2023/07/04 08:19:26;;;;;;;5.15;2.60;;;22.80;1.00;;;;;;7386529;19;20350;-70
2023/07/04 08:21:57;;;;;;;8.45;3.38;;;22.50;1.00;;;;;;7386657;19;20074;-69
2023/07/04 08:24:27;;;;;;;7.07;2.83;;;22.80;1.00;;;;;;7386236;19;20018;-69
2023/07/04 08:26:58;;;;;;;7.35;3.28;;;21.80;1.00;;;;;;7387946;19;20028;-69
2023/07/04 08:29:30;;;;;;;6.60;2.83;;;22.50;1.00;;;;;;7387233;19;20070;-69
2023/07/04 08:32:00;;;;;;;6.05;3.25;;;22.10;1.00;;;;;;7384661;19;20011;-69
2023/07/04 08:34:30;;;;;;;4.50;2.95;;;22.50;1.00;;;;;;7385668;19;20014;-68
2023/07/04 08:37:00;;;;;;;7.28;2.75;;;22.80;1.00;;;;;;7390214;19;20492;-69
2023/07/04 08:39:30;;;;;;;7.65;3.38;;;23.30;1.00;;;;;;7389886;19;20010;-69
2023/07/04 08:42:03;;;;;;;7.35;2.80;;;23.30;1.00;;;;;;7393016;19;20017;-68
2023/07/04 08:44:38;;;;;;;6.75;2.95;;;23.30;1.00;;;;;;7392641;19;20090;-68
2023/07/04 08:47:12;;;;;;;7.95;3.10;;;22.10;1.00;;;;;;7393784;19;20017;-69
2023/07/04 08:49:44;;;;;;;8.88;3.50;;;22.00;1.00;;;;;;7392423;19;20042;-68
2023/07/04 08:52:21;;;;;;;5.63;3.15;;;22.30;1.00;;;;;;7392528;19;20027;-69
2023/07/04 08:54:51;;;;;;;7.78;3.13;;;22.00;1.00;;;;;;7392745;19;20348;-69
2023/07/04 08:57:29;;;;;;;8.57;4.68;;;22.10;1.00;;;;;;7397037;19;20006;-68
2023/07/04 09:00:08;;;;;;;5.97;3.78;;;21.80;1.00;;;;;;7392253;19;20014;-69
2023/07/04 09:02:57;;;;;;;9.57;3.63;;;21.30;1.00;;;;;;7392441;19;20019;-69
2023/07/04 09:05:37;;;;;;;8.40;3.35;;;21.60;1.00;;;;;;7392152;19;20034;-69
2023/07/04 09:08:15;;;;;;;9.27;4.25;;;21.80;1.00;;;;;;7390885;19;20104;-68
2023/07/04 09:10:49;;;;;;;8.18;3.88;;;21.40;1.00;;;;;;7391110;19;20042;-69
2023/07/04 09:13:27;;;;;;;9.63;3.67;;;21.30;1.00;;;;;;7392154;19;20377;-69
2023/07/04 09:16:04;;;;;;;7.38;3.80;;;22.50;1.00;;;;;;7393203;19;20007;-69
2023/07/04 09:18:41;;;;;;;7.22;3.47;;;22.60;1.00;;;;;;7392481;19;20019;-69
2023/07/04 09:21:14;;;;;;;7.20;3.28;;;23.20;1.00;;;;;;7390327;19;20193;-68
2023/07/04 09:23:47;;;;;;;6.35;3.58;;;24.10;1.00;;;;;;7392578;19;20023;-68
2023/07/04 09:26:20;;;;;;;7.70;4.07;;;24.80;1.00;;;;;;7391376;19;20085;-69
2023/07/04 09:28:52;;;;;;;7.60;3.90;;;24.20;1.00;;;;;;7391846;19;20482;-68
2023/07/04 09:31:29;;;;;;;7.40;3.50;;;23.00;1.00;;;;;;7385963;19;20014;-70
2023/07/04 09:34:03;;;;;;;8.88;3.28;;;24.40;1.00;;;;;;7389862;19;20018;-69
2023/07/04 09:36:38;;;;;;;6.45;3.58;;;23.90;1.00;;;;;;7393510;19;20042;-69
2023/07/04 09:39:09;;;;;;;6.75;3.50;;;24.60;1.00;;;;;;7391662;19;20031;-68
2023/07/04 09:41:42;;;;;;;6.97;3.53;;;24.70;1.00;;;;;;7388674;19;20007;-68
2023/07/04 09:44:31;;;;;;;10.90;3.75;;;25.10;1.00;;;;;;7391571;19;20018;-69
2023/07/04 09:47:04;;;;;;;7.97;4.10;;;25.40;1.00;;;;;;7392332;19;20471;-68
2023/07/04 09:49:36;;;;;;;7.43;3.97;;;25.20;1.00;;;;;;7390068;19;20039;-69
2023/07/04 09:52:08;;;;;;;6.80;3.95;;;25.50;1.00;;;;;;7390617;19;20014;-68
2023/07/04 09:54:40;;;;;;;7.72;3.67;;;25.60;1.00;;;;;;7390770;19;20570;-69
2023/07/04 09:57:22;;;;;;;7.05;3.88;;;25.80;1.00;;;;;;7392489;19;20022;-68
2023/07/04 09:59:53;;;;;;;9.35;4.90;;;25.70;1.00;;;;;;7388958;19;20035;-68
2023/07/04 10:02:35;;;;;;;7.00;4.72;;;24.50;1.00;;;;;;7390560;19;20038;-68
2023/07/04 10:05:05;;;;;;;7.03;4.28;;;25.30;1.00;;;;;;7390956;19;20010;-68
2023/07/04 10:07:35;;;;;;;8.07;4.22;;;25.90;1.00;;;;;;7392489;19;20050;-68
2023/07/04 10:10:10;;;;;;;6.57;4.57;;;24.60;1.00;;;;;;7389018;19;20074;-68
2023/07/04 10:12:44;;;;;;;6.68;4.78;;;24.50;1.00;;;;;;7390661;19;20027;-69
2023/07/04 10:15:26;;;;;;;8.52;4.65;;;24.60;1.00;;;;;;7390032;19;20022;-68
2023/07/04 10:17:59;;;;;;;5.47;4.00;;;24.60;1.00;;;;;;7389367;19;20018;-68
2023/07/04 10:20:42;;;;;;;8.27;4.55;;;24.60;1.00;;;;;;7388565;19;20014;-68
2023/07/04 10:23:12;;;;;;;8.95;4.85;;;25.50;1.00;;;;;;7390253;19;20054;-69
2023/07/04 10:25:42;;;;;;;6.63;3.97;;;25.60;1.00;;;;;;7390767;19;20341;-69
2023/07/04 10:28:17;;;;;;;8.30;4.65;;;25.10;1.00;;;;;;7390390;19;20042;-69
2023/07/04 10:30:51;;;;;;;7.57;4.30;;;24.10;1.00;;;;;;7393046;19;20019;-68
2023/07/04 10:33:28;;;;;;;;;;;24.90;1.00;;;;;;7390345;19;20035;-68
2023/07/04 10:35:58;;;;;;;9.82;4.53;;;24.10;1.00;;;;;;7390062;19;19918;-68
2023/07/04 10:38:39;;;;;;;6.88;4.68;;;24.00;1.00;;;;;;7389491;19;20042;-68
2023/07/04 10:41:18;;;;;;;7.88;4.88;;;24.40;1.00;;;;;;7386743;19;20094;-69
2023/07/04 10:43:53;;;;;;;9.65;4.80;;;24.60;1.00;;;;;;7389510;19;20035;-68
2023/07/04 10:46:26;;;;;;;6.72;4.68;;;25.00;1.00;;;;;;7391890;19;20767;-69
2023/07/04 10:49:05;;;;;;;7.63;4.80;;;25.30;1.00;;;;;;7388336;19;20092;-69
2023/07/04 10:51:43;;;;;;;10.05;4.75;;;25.80;1.00;;;;;;7387788;19;20022;-70
2023/07/04 10:54:15;;;;;;;9.18;4.90;;;25.00;1.00;;;;;;7388615;19;20018;-69
2023/07/04 10:56:48;;;;;;;7.72;5.18;;;24.40;1.00;;;;;;7390740;19;20025;-69
2023/07/04 10:59:22;;;;;;;8.52;5.38;;;24.00;1.00;;;;;;7388566;19;20023;-68
2023/07/04 11:01:57;;;;;;;9.40;5.47;;;24.10;1.00;;;;;;7387027;19;20011;-70
2023/07/04 11:04:32;;;;;;;10.50;5.40;;;23.90;1.00;;;;;;7388132;19;20014;-69
2023/07/04 11:07:07;;;;;;;9.50;4.90;;;23.80;1.00;;;;;;7390514;19;20668;-68
2023/07/04 11:09:41;;;;;;;8.57;5.65;;;24.00;1.00;;;;;;7387717;19;20035;-68
2023/07/04 11:12:18;;;;;;;8.95;5.38;;;24.00;1.00;;;;;;7386829;19;20039;-70
2023/07/04 11:14:50;;;;;;;7.40;4.63;;;24.50;1.00;;;;;;7388228;19;20025;-68
2023/07/04 11:17:23;;;;;;;7.30;4.93;;;24.70;1.00;;;;;;7391560;19;20024;-70
2023/07/04 11:20:07;;;;;;;7.70;5.13;;;24.60;1.00;;;;;;7387119;19;20586;-69
2023/07/04 11:22:47;;;;;;;10.98;5.50;;;25.10;1.00;;;;;;7385804;19;20601;-69
2023/07/04 11:25:55;;;;;;;13.82;8.10;;;24.80;1.00;;;;;;7386758;19;20040;-69
2023/07/04 11:28:28;;;;;;;8.80;5.40;;;25.30;1.00;;;;;;7386145;19;20024;-67
2023/07/04 11:31:10;;;;;;;9.10;5.40;;;25.70;1.00;;;;;;7389644;19;20022;-68
2023/07/04 11:33:44;;;;;;;7.53;5.88;;;25.90;1.00;;;;;;7386606;19;20506;-69
2023/07/04 11:36:27;;;;;;;11.00;5.22;;;25.80;1.00;;;;;;7387456;19;20014;-68
2023/07/04 11:39:02;;;;;;;12.32;5.10;;;25.00;1.00;;;;;;7387148;19;20035;-68
2023/07/04 11:41:37;;;;;;;28.38;6.43;;;25.60;1.00;;;;;;7383089;19;20368;-67
2023/07/04 11:44:15;;;;;;;10.45;5.13;;;25.80;1.00;;;;;;7385979;19;20010;-67
2023/07/04 11:46:48;;;;;;;10.40;5.82;;;25.80;1.00;;;;;;7387828;19;20046;-68
2023/07/04 11:49:21;;;;;;;10.45;5.03;;;25.80;1.00;;;;;;7386716;19;20371;-67
2023/07/04 11:52:04;;;;;;;10.55;5.47;;;25.20;1.00;;;;;;7385298;19;20057;-67
2023/07/04 11:54:35;;;;;;;8.57;5.25;;;25.70;1.00;;;;;;7387138;19;20506;-68
2023/07/04 11:57:09;;;;;;;6.93;4.60;;;26.00;1.00;;;;;;7390131;19;20014;-68
2023/07/04 11:59:46;;;;;;;9.93;5.40;;;26.00;1.00;;;;;;7385498;19;20010;-68
2023/07/04 12:02:33;;;;;;;9.23;5.20;;;26.50;1.00;;;;;;7386863;19;20014;-68
2023/07/04 12:05:06;;;;;;;11.43;5.05;;;25.70;1.00;;;;;;7386159;19;20038;-67
2023/07/04 12:07:46;;;;;;;8.32;5.25;;;25.40;1.00;;;;;;7389192;19;20042;-68
2023/07/04 12:10:20;;;;;;;9.15;5.15;;;25.30;1.00;;;;;;7385466;19;20352;-68
2023/07/04 12:13:01;;;;;;;9.87;5.30;;;25.60;1.00;;;;;;7388607;19;20050;-68
2023/07/04 12:15:33;;;;;;;10.73;4.82;;;25.50;1.00;;;;;;7394291;19;20276;-67
2023/07/04 12:18:16;;;;;;;7.57;4.47;;;25.10;1.00;;;;;;7397969;19;20672;-68
2023/07/04 12:20:46;;;;;;;9.32;4.65;;;25.40;1.00;;;;;;7391956;19;20042;-68
2023/07/04 12:23:20;;;;;;;7.05;5.50;;;25.20;1.00;;;;;;7393372;19;20011;-69
2023/07/04 12:25:52;;;;;;;10.40;4.38;;;25.40;1.00;;;;;;7394033;19;20372;-68
2023/07/04 12:28:26;;;;;;;8.52;4.40;;;24.80;1.00;;;;;;7392742;19;20089;-68
2023/07/04 12:31:00;;;;;;;9.80;4.65;;;25.90;1.00;;;;;;7395909;19;20018;-68
2023/07/04 12:33:50;;;;;;;10.18;4.63;;;26.70;1.00;;;;;;7392851;19;20018;-68
2023/07/04 12:36:21;;;;;;;8.95;4.47;;;27.10;1.00;;;;;;7393553;19;20373;-68
2023/07/04 12:38:58;;;;;;;7.10;4.30;;;27.30;1.00;;;;;;7393701;19;20019;-69
2023/07/04 12:41:31;;;;;;;6.28;4.32;;;26.70;1.00;;;;;;7388864;19;20048;-69
2023/07/04 12:44:03;;;;;;;5.35;4.00;;;26.70;1.00;;;;;;7392809;19;20757;-69
2023/07/04 12:46:42;;;;;;;7.47;3.92;;;26.40;1.00;;;;;;7397221;19;20014;-68
2023/07/04 12:49:17;;;;;;;7.88;4.38;;;26.40;1.00;;;;;;7390148;19;20032;-71
2023/07/04 12:51:50;;;;;;;6.47;4.07;;;26.60;1.00;;;;;;7392770;19;20022;-70
2023/07/04 12:54:22;;;;;;;8.77;4.30;;;27.10;1.00;;;;;;7386141;19;20089;-72
2023/07/04 12:56:55;;;;;;;8.10;4.15;;;26.90;1.00;;;;;;7394804;19;20038;-74
2023/07/04 12:59:36;;;;;;;9.50;4.82;;;27.10;1.00;;;;;;7389214;19;20010;-72
2023/07/04 13:02:15;;;;;;;6.07;3.72;;;27.10;1.00;;;;;;7387813;19;20049;-72
2023/07/04 13:04:45;;;;;;;8.43;4.25;;;25.50;1.00;;;;;;7392417;19;20014;-74
2023/07/04 13:07:15;;;;;;;7.30;3.78;;;26.50;1.00;;;;;;7392420;19;20367;-71
2023/07/04 13:09:49;;;;;;;8.77;3.53;;;27.10;1.00;;;;;;7386936;19;20042;-73
2023/07/04 13:12:27;;;;;;;6.43;4.05;;;27.50;1.00;;;;;;7392428;19;20047;-72
2023/07/04 13:15:11;;;;;;;5.35;3.72;;;26.30;1.00;;;;;;7389069;19;20019;-71
2023/07/04 13:17:57;;;;;;;6.95;3.90;;;26.40;1.00;;;;;;7392179;19;20022;-73
2023/07/04 13:20:27;;;;;;;6.60;3.20;;;25.80;1.00;;;;;;7389324;19;20014;-72
2023/07/04 13:22:57;;;;;;;6.55;3.90;;;26.70;1.00;;;;;;7389972;19;20030;-71
2023/07/04 13:25:39;;;;;;;6.97;3.43;;;26.60;1.00;;;;;;7386607;19;20087;-72